Geervliet — PCLI — position and weather

sailwx.info

Track history (hours):
 
Tides and Currents Weather Stations Pressure Air Temp Water Temp Dewpoint Dewpoint Depression Visibility Wind Speed Wind Dir Waves Ship Positions

Geervliet

Last reported at 2018-Apr-18 21:34 UTC. Time now 2018-Apr-25 18:34 UTC.
Position N 48°25' W 006°08'.

Length 86 m; draft 5.3 m.

Type: Ship. MMSI: 246803000.

Date/timePositionNaut miles runAvg speedWind from/ knotsBaromVisibWave heightAir tempDewpointWater temp
2018-Apr-18 21:34N 48°25' W 006°08'10 9.9
2018-Apr-18 20:34N 48°33' W 006°01'21 7.7
2018-Apr-18 17:53N 48°52' W 005°46'94 7.7
2018-Apr-18 05:38N 49°39' W 003°41'2 6.3
2018-Apr-18 05:23N 49°40' W 003°39'3 6.9
2018-Apr-18 05:00N 49°42' W 003°36'4 7.6
2018-Apr-18 04:30N 49°44' W 003°31'4 8.5
2018-Apr-18 04:01N 49°46' W 003°25'5 9.7
2018-Apr-18 03:30N 49°48' W 003°19'610.5
2018-Apr-18 02:59N 49°51' W 003°11'511.0
2018-Apr-18 02:30N 49°54' W 003°04'611.0
2018-Apr-18 02:00N 49°56' W 002°57'510.8
2018-Apr-18 01:30N 49°58' W 002°49'510.4
2018-Apr-18 00:59N 50°00' W 002°41'23 7.3
2018-Apr-17 21:49N 50°06' W 002°06'1 4.1
2018-Apr-17 21:29N 50°07' W 002°04'2 3.7
2018-Apr-17 21:00N 50°07' W 002°02'2 3.7
2018-Apr-17 20:31N 50°08' W 001°59'2 3.8
2018-Apr-17 20:00N 50°08' W 001°56'2 4.3
2018-Apr-17 19:30N 50°09' W 001°53'3 5.3
2018-Apr-17 19:00N 50°10' W 001°49'3 6.6
2018-Apr-17 18:30N 50°11' W 001°44'4 7.9
2018-Apr-17 18:00N 50°12' W 001°38'5 9.2
2018-Apr-17 17:30N 50°14' W 001°31'510.6
2018-Apr-17 17:00N 50°15' W 001°24'611.7
2018-Apr-17 16:31N 50°17' W 001°15'2912.5
2018-Apr-17 14:12N 50°26' W 000°32'411.4
2018-Apr-17 13:50N 50°27' W 000°26'410.9
2018-Apr-17 13:30N 50°28' W 000°20'510.4
2018-Apr-17 13:01N 50°30' W 000°12'5 9.6
2018-Apr-17 12:30N 50°31' W 000°05'4 8.9
2018-Apr-17 12:01N 50°32' E 000°02'4 8.3
2018-Apr-17 11:31N 50°33' E 000°08'4 7.8
2018-Apr-17 11:00N 50°35' E 000°14'4 7.4
2018-Apr-17 10:30N 50°36' E 000°19'3 6.9
2018-Apr-17 10:01N 50°37' E 000°24'3 6.7
2018-Apr-17 09:30N 50°38' E 000°29'4 7.1
2018-Apr-17 09:00N 50°39' E 000°35'4 7.8
2018-Apr-17 08:30N 50°41' E 000°40'4 8.7
2018-Apr-17 08:01N 50°44' E 000°45'5 9.8
2018-Apr-17 07:31N 50°47' E 000°51'510.6
2018-Apr-17 07:01N 50°50' E 000°58'611.2
2018-Apr-17 06:31N 50°53' E 001°06'611.1
2018-Apr-17 06:01N 50°57' E 001°12'511.0
2018-Apr-17 05:31N 51°00' E 001°19'510.5
2018-Apr-17 05:00N 51°03' E 001°25'5 9.6
2018-Apr-17 04:31N 51°07' E 001°31'4 8.5
2018-Apr-17 04:01N 51°09' E 001°36'4 7.8
2018-Apr-17 03:31N 51°12' E 001°41'4 7.6
2018-Apr-17 03:01N 51°15' E 001°45'4 7.4
2018-Apr-17 02:30N 51°18' E 001°49'4 7.1
2018-Apr-17 02:00N 51°20' E 001°52'4 7.3
2018-Apr-17 01:30N 51°23' E 001°56'4 7.4
2018-Apr-17 01:00N 51°26' E 001°60'4 8.2
2018-Apr-17 00:30N 51°29' E 002°04'4 8.7
2018-Apr-17 00:00N 51°33' E 002°08'5 9.1
2018-Apr-16 23:29N 51°36' E 002°13'5 9.9
2018-Apr-16 23:00N 51°40' E 002°18'510.9
2018-Apr-16 22:30N 51°44' E 002°24'611.2
2018-Apr-16 22:00N 51°48' E 002°30'811.4
2018-Apr-16 21:19N 51°55' E 002°38'411.4
2018-Apr-16 21:00N 51°57' E 002°41'1011.3
2018-Apr-16 20:07N 52°05' E 002°51'310.9
2018-Apr-16 19:49N 52°08' E 002°54'510.6
2018-Apr-16 19:22N 52°12' E 002°59'410.3
2018-Apr-16 19:00N 52°15' E 003°03'5 9.8
2018-Apr-16 18:30N 52°19' E 003°08'5 9.2
2018-Apr-16 18:00N 52°22' E 003°12'4 8.8
2018-Apr-16 17:30N 52°26' E 003°17'4 8.6
2018-Apr-16 17:00N 52°29' E 003°21'5 8.3
2018-Apr-16 16:25N 52°33' E 003°26'4 8.1
2018-Apr-16 15:57N 52°36' E 003°30'4 7.9
2018-Apr-16 15:29N 52°39' E 003°33'65 9.4
2018-Apr-16 08:30N 53°29' E 004°44'5 9.0
2018-Apr-16 07:58N 53°31' E 004°51'4 8.0
2018-Apr-16 07:30N 53°32' E 004°57'4 7.8
2018-Apr-16 07:00N 53°33' E 005°03'4 8.1
2018-Apr-16 06:30N 53°35' E 005°10'92 9.6
2018-Apr-15 20:54N 54°01' E 007°40'4 8.3
2018-Apr-15 20:28N 54°01' E 007°46'4 8.4
2018-Apr-15 19:59N 54°01' E 007°53'4 8.3
2018-Apr-15 19:30N 54°01' E 007°59'4 8.5
2018-Apr-15 19:00N 54°01' E 008°07'4 8.8
2018-Apr-15 18:30N 54°01' E 008°14'611.1
2018-Apr-15 17:59N 53°60' E 008°24'611.8
2018-Apr-15 17:30N 53°58' E 008°33'612.1
2018-Apr-15 17:00N 53°55' E 008°41'612.9
2018-Apr-15 16:30N 53°50' E 008°49'713.3
2018-Apr-15 16:00N 53°51' E 009°01'510.4
2018-Apr-15 15:30N 53°54' E 009°09'0 0.2
2018-Apr-15 15:00N 53°54' E 009°09'0 0.6
2018-Apr-15 14:25N 53°54' E 009°09'0 0.0
2018-Apr-15 13:58N 53°54' E 009°09'1 2.2
2018-Apr-15 13:29N 53°55' E 009°11'0 0.4
2018-Apr-15 12:59N 53°55' E 009°11'0 0.0
2018-Apr-15 12:29N 53°55' E 009°11'0 0.0
2018-Apr-15 11:59N 53°55' E 009°11'0 0.0
2018-Apr-15 11:30N 53°55' E 009°11'0 0.7
2018-Apr-15 11:00N 53°55' E 009°11'3 5.7
2018-Apr-15 10:31N 53°57' E 009°14'4 7.0
2018-Apr-15 10:00N 54°00' E 009°18'3 6.3
2018-Apr-15 09:30N 54°03' E 009°18'3 6.5
2018-Apr-15 09:01N 54°06' E 009°20'3 5.5
2018-Apr-15 08:30N 54°09' E 009°22'3 6.6
2018-Apr-15 08:01N 54°10' E 009°27'4 8.3
2018-Apr-15 07:31N 54°12' E 009°33'4 7.4
2018-Apr-15 07:00N 54°15' E 009°37'4 7.5
2018-Apr-15 06:30N 54°18' E 009°41'2 4.0
2018-Apr-15 06:01N 54°19' E 009°43'2 4.0
2018-Apr-15 05:31N 54°21' E 009°46'5 7.0
2018-Apr-15 04:51N 54°21' E 009°53'3 7.9
2018-Apr-15 04:30N 54°21' E 009°58'18 4.5
2018-Apr-15 00:36N 54°31' E 010°23'2 9.6
2018-Apr-15 00:25N 54°32' E 010°25'4 9.6
2018-Apr-15 00:00N 54°33' E 010°31'5 9.3
2018-Apr-14 23:31N 54°34' E 010°39'5 9.4
2018-Apr-14 23:00N 54°35' E 010°47'5 9.5
2018-Apr-14 22:31N 54°35' E 010°55'5 9.8
2018-Apr-14 22:01N 54°36' E 011°04'5 9.3
2018-Apr-14 21:31N 54°35' E 011°12'5 9.9
2018-Apr-14 21:01N 54°33' E 011°20'5 9.9
2018-Apr-14 20:31N 54°31' E 011°27'510.0
2018-Apr-14 20:00N 54°29' E 011°35'510.0
2018-Apr-14 19:30N 54°27' E 011°43'5 9.7
2018-Apr-14 19:00N 54°24' E 011°50'5 9.7
2018-Apr-14 18:30N 54°20' E 011°55'5 9.9
2018-Apr-14 18:00N 54°16' E 012°00'5 9.4
2018-Apr-14 17:29N 54°12' E 012°05'3 1.2
2018-Apr-14 14:54N 54°09' E 012°06'0 0.0
2018-Apr-14 14:18N 54°09' E 012°06'0 0.0
2018-Apr-14 13:51N 54°09' E 012°06'0 0.0
2018-Apr-14 09:54N 54°09' E 012°06'0 0.0
2018-Apr-14 06:39N 54°09' E 012°06'0 0.0
2018-Apr-14 06:30N 54°09' E 012°06'0 0.0
2018-Apr-14 06:00N 54°09' E 012°06'0 0.0
2018-Apr-14 03:42N 54°09' E 012°06'0 0.0
2018-Apr-14 03:30N 54°09' E 012°06'0 0.0
2018-Apr-14 02:03N 54°09' E 012°06'0 0.0
2018-Apr-14 01:33N 54°09' E 012°06'0 0.0
2018-Apr-14 01:18N 54°09' E 012°06'0 0.0
2018-Apr-14 00:54N 54°09' E 012°06'0 0.0
2018-Apr-13 19:54N 54°09' E 012°06'0 0.0
2018-Apr-13 18:54N 54°09' E 012°06'0 0.0
2018-Apr-13 18:24N 54°09' E 012°06'0 0.0
2018-Apr-13 17:18N 54°09' E 012°06'0 0.0
2018-Apr-13 14:12N 54°09' E 012°06'0 0.0
2018-Apr-13 14:00N 54°09' E 012°06'0 0.0
2018-Apr-13 09:39N 54°09' E 012°06'0 0.0
2018-Apr-13 09:24N 54°09' E 012°06'0 0.0
2018-Apr-13 09:00N 54°09' E 012°06'0 0.0
2018-Apr-13 08:30N 54°09' E 012°06'0 0.0
2018-Apr-13 07:36N 54°09' E 012°06'0 0.0
2018-Apr-13 07:30N 54°09' E 012°06'0 0.0
2018-Apr-13 05:27N 54°09' E 012°06'0 0.0
2018-Apr-13 05:00N 54°09' E 012°06'0 0.0
2018-Apr-13 04:30N 54°09' E 012°06'0 0.0
2018-Apr-13 03:57N 54°09' E 012°06'0 0.0
2018-Apr-12 23:09N 54°09' E 012°06'0 0.0
2018-Apr-12 22:57N 54°09' E 012°06'0 0.2
2018-Apr-12 22:30N 54°09' E 012°06'3 4.4
2018-Apr-12 21:45N 54°13' E 012°04'2 6.5
2018-Apr-12 21:30N 54°14' E 012°02'5 9.1
2018-Apr-12 21:00N 54°17' E 011°57'10 8.5
2018-Apr-12 19:48N 54°23' E 011°42'2 7.6
2018-Apr-12 19:30N 54°24' E 011°39'4 7.5
2018-Apr-12 19:00N 54°26' E 011°34'4 7.8
2018-Apr-12 18:31N 54°28' E 011°28'4 7.7
2018-Apr-12 18:00N 54°31' E 011°23'4 7.6
2018-Apr-12 17:30N 54°33' E 011°17'4 7.1
2018-Apr-12 17:00N 54°33' E 011°11'4 7.2
2018-Apr-12 16:30N 54°34' E 011°05'4 7.4
2018-Apr-12 16:00N 54°34' E 010°59'4 8.0
2018-Apr-12 15:30N 54°34' E 010°52'4 8.2
2018-Apr-12 15:00N 54°33' E 010°45'4 8.5
2018-Apr-12 14:31N 54°33' E 010°37'4 8.1
2018-Apr-12 14:00N 54°32' E 010°30'5 8.4
2018-Apr-12 13:24N 54°30' E 010°22'19 1.8
2018-Apr-12 02:41N 54°21' E 009°53'1 4.4
2018-Apr-12 02:23N 54°22' E 009°51'3 7.0
2018-Apr-12 02:00N 54°21' E 009°47'4 7.9
2018-Apr-12 01:30N 54°18' E 009°43'4 7.6
2018-Apr-12 01:00N 54°16' E 009°38'4 7.8
2018-Apr-12 00:30N 54°13' E 009°35'4 8.7
2018-Apr-12 00:00N 54°11' E 009°28'4 8.8
2018-Apr-11 23:31N 54°09' E 009°21'4 8.3
2018-Apr-11 23:00N 54°05' E 009°19'4 7.8
2018-Apr-11 22:30N 54°01' E 009°18'4 8.6
2018-Apr-11 22:01N 53°57' E 009°14'3 6.6
2018-Apr-11 21:30N 53°55' E 009°11'2 3.1
2018-Apr-11 21:00N 53°54' E 009°09'1 1.6
2018-Apr-11 20:30N 53°53' E 009°08'3 5.2
2018-Apr-11 20:00N 53°52' E 009°04'612.1
2018-Apr-11 19:30N 53°50' E 008°54'611.8
2018-Apr-11 19:00N 53°52' E 008°44'612.2
2018-Apr-11 18:28N 53°57' E 008°38'1710.5
2018-Apr-11 16:52N 53°59' E 008°09'410.4
2018-Apr-11 16:28N 53°58' E 008°02'3 6.9
2018-Apr-11 16:00N 53°55' E 007°60'5 9.4
2018-Apr-11 15:30N 53°52' E 008°07'5 9.3
2018-Apr-11 15:00N 53°48' E 008°09'510.3
2018-Apr-11 14:30N 53°44' E 008°15'611.5
2018-Apr-11 14:00N 53°41' E 008°22'612.3
2018-Apr-11 13:30N 53°36' E 008°30'610.8
2018-Apr-11 13:00N 53°31' E 008°33'611.6
2018-Apr-11 12:31N 53°26' E 008°30'611.1
2018-Apr-11 12:00N 53°20' E 008°30'0 0.0
2018-Apr-11 11:28N 53°20' E 008°30'0 0.0
2018-Apr-11 10:55N 53°20' E 008°30'0 0.0
2018-Apr-11 10:22N 53°20' E 008°30'0 0.0
2018-Apr-11 09:58N 53°20' E 008°30'0 0.0
2018-Apr-11 09:16N 53°20' E 008°30'0 0.0
2018-Apr-11 08:55N 53°20' E 008°30'0 0.0
2018-Apr-11 08:28N 53°20' E 008°30'0 0.0
2018-Apr-11 07:58N 53°20' E 008°30'0 0.0
2018-Apr-11 07:28N 53°20' E 008°30'0 0.0
2018-Apr-11 06:46N 53°20' E 008°30'0 0.0
2018-Apr-11 06:28N 53°20' E 008°30'0 0.0
2018-Apr-11 05:58N 53°20' E 008°30'0 0.0
2018-Apr-11 05:19N 53°20' E 008°30'0 0.0
2018-Apr-11 04:58N 53°20' E 008°30'0 0.0
2018-Apr-11 04:28N 53°20' E 008°30'0 0.0
2018-Apr-11 02:10N 53°20' E 008°30'0 0.0
2018-Apr-11 01:46N 53°20' E 008°30'0 0.0
2018-Apr-11 01:28N 53°20' E 008°30'0 0.0
2018-Apr-11 00:58N 53°20' E 008°30'0 0.0
2018-Apr-11 00:28N 53°20' E 008°30'0 0.0
2018-Apr-10 23:46N 53°20' E 008°30'0 0.0
2018-Apr-10 23:19N 53°20' E 008°30'0 0.0
2018-Apr-10 22:52N 53°20' E 008°30'0 0.0
2018-Apr-10 22:25N 53°20' E 008°30'0 0.0
2018-Apr-10 21:58N 53°20' E 008°30'0 0.0
2018-Apr-10 21:28N 53°20' E 008°30'0 0.0
2018-Apr-10 20:58N 53°20' E 008°30'0 0.0
2018-Apr-10 20:28N 53°20' E 008°30'0 0.0
2018-Apr-10 19:58N 53°20' E 008°30'0 0.0
2018-Apr-10 18:19N 53°20' E 008°30'0 0.0
2018-Apr-10 17:52N 53°20' E 008°30'0 0.0
2018-Apr-10 17:28N 53°20' E 008°30'0 0.0
2018-Apr-10 16:58N 53°20' E 008°30'0 0.0
2018-Apr-10 16:28N 53°20' E 008°30'0 0.0
2018-Apr-10 16:00N 53°20' E 008°30'3 6.3
2018-Apr-10 15:30N 53°24' E 008°30'611.8
2018-Apr-10 15:01N 53°29' E 008°30'5 9.4
2018-Apr-10 14:31N 53°34' E 008°33'510.2
2018-Apr-10 14:00N 53°38' E 008°27'5 9.9
2018-Apr-10 13:30N 53°41' E 008°21'510.0
2018-Apr-10 13:00N 53°44' E 008°14'510.1
2018-Apr-10 12:30N 53°48' E 008°08'5 9.9
2018-Apr-10 12:00N 53°51' E 008°02'92 9.3
2018-Apr-10 02:06N 53°34' E 005°30'2 9.5
2018-Apr-10 01:54N 53°33' E 005°27'4 9.7
2018-Apr-10 01:30N 53°32' E 005°20'5 9.5
2018-Apr-10 01:00N 53°30' E 005°13'5 9.5
2018-Apr-10 00:30N 53°29' E 005°05'5 9.6
2018-Apr-10 00:00N 53°27' E 004°58'5 9.7
2018-Apr-09 23:30N 53°25' E 004°50'5 9.9
2018-Apr-09 23:00N 53°23' E 004°43'1110.6
2018-Apr-09 21:57N 53°13' E 004°35'510.5
2018-Apr-09 21:30N 53°08' E 004°32'510.2
2018-Apr-09 20:59N 53°03' E 004°29'510.4
2018-Apr-09 20:30N 52°58' E 004°28'510.5
2018-Apr-09 20:00N 52°53' E 004°28'510.6
2018-Apr-09 19:30N 52°48' E 004°29'510.3
2018-Apr-09 19:00N 52°43' E 004°30'5 9.9
2018-Apr-09 18:30N 52°38' E 004°29'5 9.8
2018-Apr-09 18:00N 52°33' E 004°29'5 9.1
2018-Apr-09 17:31N 52°28' E 004°30'3 6.8
2018-Apr-09 17:00N 52°28' E 004°36'1 2.1
2018-Apr-09 16:30N 52°28' E 004°37'4 7.2
2018-Apr-09 16:01N 52°26' E 004°42'4 8.7
2018-Apr-09 15:30N 52°25' E 004°49'1 1.4
2018-Apr-09 14:58N 52°24' E 004°49'0 0.0
2018-Apr-09 14:28N 52°24' E 004°49'0 0.0
2018-Apr-09 13:55N 52°24' E 004°49'0 0.0
2018-Apr-09 13:25N 52°24' E 004°49'0 0.0
2018-Apr-09 13:00N 52°24' E 004°49'0 0.0
2018-Apr-09 12:30N 52°24' E 004°49'0 0.0
2018-Apr-09 12:00N 52°24' E 004°49'0 0.0
2018-Apr-09 11:30N 52°24' E 004°49'0 0.0
2018-Apr-09 11:00N 52°24' E 004°49'0 0.0
2018-Apr-09 10:30N 52°24' E 004°49'0 0.0
2018-Apr-09 10:00N 52°24' E 004°49'0 0.0
2018-Apr-09 09:30N 52°24' E 004°49'0 0.0
2018-Apr-09 09:00N 52°24' E 004°49'0 0.0
2018-Apr-09 08:30N 52°24' E 004°49'0 0.0
2018-Apr-09 08:00N 52°24' E 004°49'0 0.0
2018-Apr-09 07:30N 52°24' E 004°49'0 0.0
2018-Apr-09 07:00N 52°24' E 004°49'0 0.0
2018-Apr-09 06:30N 52°24' E 004°49'0 0.0
2018-Apr-09 06:00N 52°24' E 004°49'0 0.0
2018-Apr-09 05:30N 52°24' E 004°49'0 0.0
2018-Apr-09 05:00N 52°24' E 004°49'0 0.0
2018-Apr-09 04:30N 52°24' E 004°49'0 0.0
2018-Apr-09 04:00N 52°24' E 004°49'0 0.0
2018-Apr-09 03:30N 52°24' E 004°49'0 0.0
2018-Apr-09 03:00N 52°24' E 004°49'0 0.0
2018-Apr-09 02:30N 52°24' E 004°49'0 0.0
2018-Apr-09 02:00N 52°24' E 004°49'0 0.0
2018-Apr-09 01:30N 52°24' E 004°49'0 0.0
2018-Apr-09 01:00N 52°24' E 004°49'0 0.0
2018-Apr-09 00:30N 52°24' E 004°49'0 0.0
2018-Apr-09 00:00N 52°24' E 004°49'0 0.0
2018-Apr-08 23:30N 52°24' E 004°49'0 0.0
2018-Apr-08 23:00N 52°24' E 004°49'0 0.0
2018-Apr-08 22:30N 52°24' E 004°49'0 0.0
2018-Apr-08 22:00N 52°24' E 004°49'  
Track history (hours):
 
Tides and Currents Weather Stations Pressure Air Temp Water Temp Dewpoint Dewpoint Depression Visibility Wind Speed Wind Dir Waves Ship Positions

Geervliet

Last reported at 2018-Apr-18 21:34 UTC. Time now 2018-Apr-25 18:34 UTC.
Position N 48°25' W 006°08'.

Length 86 m; draft 5.3 m.

Type: Ship. MMSI: 246803000.

Date/timePositionNaut miles runAvg speedWind from/ knotsBaromVisibWave heightAir tempDewpointWater temp
2018-Apr-18 21:34N 48°25' W 006°08'10 9.9
2018-Apr-18 20:34N 48°33' W 006°01'21 7.7
2018-Apr-18 17:53N 48°52' W 005°46'94 7.7
2018-Apr-18 05:38N 49°39' W 003°41'2 6.3
2018-Apr-18 05:23N 49°40' W 003°39'3 6.9
2018-Apr-18 05:00N 49°42' W 003°36'4 7.6
2018-Apr-18 04:30N 49°44' W 003°31'4 8.5
2018-Apr-18 04:01N 49°46' W 003°25'5 9.7
2018-Apr-18 03:30N 49°48' W 003°19'610.5
2018-Apr-18 02:59N 49°51' W 003°11'511.0
2018-Apr-18 02:30N 49°54' W 003°04'611.0
2018-Apr-18 02:00N 49°56' W 002°57'510.8
2018-Apr-18 01:30N 49°58' W 002°49'510.4
2018-Apr-18 00:59N 50°00' W 002°41'23 7.3
2018-Apr-17 21:49N 50°06' W 002°06'1 4.1
2018-Apr-17 21:29N 50°07' W 002°04'2 3.7
2018-Apr-17 21:00N 50°07' W 002°02'2 3.7
2018-Apr-17 20:31N 50°08' W 001°59'2 3.8
2018-Apr-17 20:00N 50°08' W 001°56'2 4.3
2018-Apr-17 19:30N 50°09' W 001°53'3 5.3
2018-Apr-17 19:00N 50°10' W 001°49'3 6.6
2018-Apr-17 18:30N 50°11' W 001°44'4 7.9
2018-Apr-17 18:00N 50°12' W 001°38'5 9.2
2018-Apr-17 17:30N 50°14' W 001°31'510.6
2018-Apr-17 17:00N 50°15' W 001°24'611.7
2018-Apr-17 16:31N 50°17' W 001°15'2912.5
2018-Apr-17 14:12N 50°26' W 000°32'411.4
2018-Apr-17 13:50N 50°27' W 000°26'410.9
2018-Apr-17 13:30N 50°28' W 000°20'510.4
2018-Apr-17 13:01N 50°30' W 000°12'5 9.6
2018-Apr-17 12:30N 50°31' W 000°05'4 8.9
2018-Apr-17 12:01N 50°32' E 000°02'4 8.3
2018-Apr-17 11:31N 50°33' E 000°08'4 7.8
2018-Apr-17 11:00N 50°35' E 000°14'4 7.4
2018-Apr-17 10:30N 50°36' E 000°19'3 6.9
2018-Apr-17 10:01N 50°37' E 000°24'3 6.7
2018-Apr-17 09:30N 50°38' E 000°29'4 7.1
2018-Apr-17 09:00N 50°39' E 000°35'4 7.8
2018-Apr-17 08:30N 50°41' E 000°40'4 8.7
2018-Apr-17 08:01N 50°44' E 000°45'5 9.8
2018-Apr-17 07:31N 50°47' E 000°51'510.6
2018-Apr-17 07:01N 50°50' E 000°58'611.2
2018-Apr-17 06:31N 50°53' E 001°06'611.1
2018-Apr-17 06:01N 50°57' E 001°12'511.0
2018-Apr-17 05:31N 51°00' E 001°19'510.5
2018-Apr-17 05:00N 51°03' E 001°25'5 9.6
2018-Apr-17 04:31N 51°07' E 001°31'4 8.5
2018-Apr-17 04:01N 51°09' E 001°36'4 7.8
2018-Apr-17 03:31N 51°12' E 001°41'4 7.6
2018-Apr-17 03:01N 51°15' E 001°45'4 7.4
2018-Apr-17 02:30N 51°18' E 001°49'4 7.1
2018-Apr-17 02:00N 51°20' E 001°52'4 7.3
2018-Apr-17 01:30N 51°23' E 001°56'4 7.4
2018-Apr-17 01:00N 51°26' E 001°60'4 8.2
2018-Apr-17 00:30N 51°29' E 002°04'4 8.7
2018-Apr-17 00:00N 51°33' E 002°08'5 9.1
2018-Apr-16 23:29N 51°36' E 002°13'5 9.9
2018-Apr-16 23:00N 51°40' E 002°18'510.9
2018-Apr-16 22:30N 51°44' E 002°24'611.2
2018-Apr-16 22:00N 51°48' E 002°30'811.4
2018-Apr-16 21:19N 51°55' E 002°38'411.4
2018-Apr-16 21:00N 51°57' E 002°41'1011.3
2018-Apr-16 20:07N 52°05' E 002°51'310.9
2018-Apr-16 19:49N 52°08' E 002°54'510.6
2018-Apr-16 19:22N 52°12' E 002°59'410.3
2018-Apr-16 19:00N 52°15' E 003°03'5 9.8
2018-Apr-16 18:30N 52°19' E 003°08'5 9.2
2018-Apr-16 18:00N 52°22' E 003°12'4 8.8
2018-Apr-16 17:30N 52°26' E 003°17'4 8.6
2018-Apr-16 17:00N 52°29' E 003°21'5 8.3
2018-Apr-16 16:25N 52°33' E 003°26'4 8.1
2018-Apr-16 15:57N 52°36' E 003°30'4 7.9
2018-Apr-16 15:29N 52°39' E 003°33'65 9.4
2018-Apr-16 08:30N 53°29' E 004°44'5 9.0
2018-Apr-16 07:58N 53°31' E 004°51'4 8.0
2018-Apr-16 07:30N 53°32' E 004°57'4 7.8
2018-Apr-16 07:00N 53°33' E 005°03'4 8.1
2018-Apr-16 06:30N 53°35' E 005°10'92 9.6
2018-Apr-15 20:54N 54°01' E 007°40'4 8.3
2018-Apr-15 20:28N 54°01' E 007°46'4 8.4
2018-Apr-15 19:59N 54°01' E 007°53'4 8.3
2018-Apr-15 19:30N 54°01' E 007°59'4 8.5
2018-Apr-15 19:00N 54°01' E 008°07'4 8.8
2018-Apr-15 18:30N 54°01' E 008°14'611.1
2018-Apr-15 17:59N 53°60' E 008°24'611.8
2018-Apr-15 17:30N 53°58' E 008°33'612.1
2018-Apr-15 17:00N 53°55' E 008°41'612.9
2018-Apr-15 16:30N 53°50' E 008°49'713.3
2018-Apr-15 16:00N 53°51' E 009°01'510.4
2018-Apr-15 15:30N 53°54' E 009°09'0 0.2
2018-Apr-15 15:00N 53°54' E 009°09'0 0.6
2018-Apr-15 14:25N 53°54' E 009°09'0 0.0
2018-Apr-15 13:58N 53°54' E 009°09'1 2.2
2018-Apr-15 13:29N 53°55' E 009°11'0 0.4
2018-Apr-15 12:59N 53°55' E 009°11'0 0.0
2018-Apr-15 12:29N 53°55' E 009°11'0 0.0
2018-Apr-15 11:59N 53°55' E 009°11'0 0.0
2018-Apr-15 11:30N 53°55' E 009°11'0 0.7
2018-Apr-15 11:00N 53°55' E 009°11'3 5.7
2018-Apr-15 10:31N 53°57' E 009°14'4 7.0
2018-Apr-15 10:00N 54°00' E 009°18'3 6.3
2018-Apr-15 09:30N 54°03' E 009°18'3 6.5
2018-Apr-15 09:01N 54°06' E 009°20'3 5.5
2018-Apr-15 08:30N 54°09' E 009°22'3 6.6
2018-Apr-15 08:01N 54°10' E 009°27'4 8.3
2018-Apr-15 07:31N 54°12' E 009°33'4 7.4
2018-Apr-15 07:00N 54°15' E 009°37'4 7.5
2018-Apr-15 06:30N 54°18' E 009°41'2 4.0
2018-Apr-15 06:01N 54°19' E 009°43'2 4.0
2018-Apr-15 05:31N 54°21' E 009°46'5 7.0
2018-Apr-15 04:51N 54°21' E 009°53'3 7.9
2018-Apr-15 04:30N 54°21' E 009°58'18 4.5
2018-Apr-15 00:36N 54°31' E 010°23'2 9.6
2018-Apr-15 00:25N 54°32' E 010°25'4 9.6
2018-Apr-15 00:00N 54°33' E 010°31'5 9.3
2018-Apr-14 23:31N 54°34' E 010°39'5 9.4
2018-Apr-14 23:00N 54°35' E 010°47'5 9.5
2018-Apr-14 22:31N 54°35' E 010°55'5 9.8
2018-Apr-14 22:01N 54°36' E 011°04'5 9.3
2018-Apr-14 21:31N 54°35' E 011°12'5 9.9
2018-Apr-14 21:01N 54°33' E 011°20'5 9.9
2018-Apr-14 20:31N 54°31' E 011°27'510.0
2018-Apr-14 20:00N 54°29' E 011°35'510.0
2018-Apr-14 19:30N 54°27' E 011°43'5 9.7
2018-Apr-14 19:00N 54°24' E 011°50'5 9.7
2018-Apr-14 18:30N 54°20' E 011°55'5 9.9
2018-Apr-14 18:00N 54°16' E 012°00'5 9.4
2018-Apr-14 17:29N 54°12' E 012°05'3 1.2
2018-Apr-14 14:54N 54°09' E 012°06'0 0.0
2018-Apr-14 14:18N 54°09' E 012°06'0 0.0
2018-Apr-14 13:51N 54°09' E 012°06'0 0.0
2018-Apr-14 09:54N 54°09' E 012°06'0 0.0
2018-Apr-14 06:39N 54°09' E 012°06'0 0.0
2018-Apr-14 06:30N 54°09' E 012°06'0 0.0
2018-Apr-14 06:00N 54°09' E 012°06'0 0.0
2018-Apr-14 03:42N 54°09' E 012°06'0 0.0
2018-Apr-14 03:30N 54°09' E 012°06'0 0.0
2018-Apr-14 02:03N 54°09' E 012°06'0 0.0
2018-Apr-14 01:33N 54°09' E 012°06'0 0.0
2018-Apr-14 01:18N 54°09' E 012°06'0 0.0
2018-Apr-14 00:54N 54°09' E 012°06'0 0.0
2018-Apr-13 19:54N 54°09' E 012°06'0 0.0
2018-Apr-13 18:54N 54°09' E 012°06'0 0.0
2018-Apr-13 18:24N 54°09' E 012°06'0 0.0
2018-Apr-13 17:18N 54°09' E 012°06'0 0.0
2018-Apr-13 14:12N 54°09' E 012°06'0 0.0
2018-Apr-13 14:00N 54°09' E 012°06'0 0.0
2018-Apr-13 09:39N 54°09' E 012°06'0 0.0
2018-Apr-13 09:24N 54°09' E 012°06'0 0.0
2018-Apr-13 09:00N 54°09' E 012°06'0 0.0
2018-Apr-13 08:30N 54°09' E 012°06'0 0.0
2018-Apr-13 07:36N 54°09' E 012°06'0 0.0
2018-Apr-13 07:30N 54°09' E 012°06'0 0.0
2018-Apr-13 05:27N 54°09' E 012°06'0 0.0
2018-Apr-13 05:00N 54°09' E 012°06'0 0.0
2018-Apr-13 04:30N 54°09' E 012°06'0 0.0
2018-Apr-13 03:57N 54°09' E 012°06'0 0.0
2018-Apr-12 23:09N 54°09' E 012°06'0 0.0
2018-Apr-12 22:57N 54°09' E 012°06'0 0.2
2018-Apr-12 22:30N 54°09' E 012°06'3 4.4
2018-Apr-12 21:45N 54°13' E 012°04'2 6.5
2018-Apr-12 21:30N 54°14' E 012°02'5 9.1
2018-Apr-12 21:00N 54°17' E 011°57'10 8.5
2018-Apr-12 19:48N 54°23' E 011°42'2 7.6
2018-Apr-12 19:30N 54°24' E 011°39'4 7.5
2018-Apr-12 19:00N 54°26' E 011°34'4 7.8
2018-Apr-12 18:31N 54°28' E 011°28'4 7.7
2018-Apr-12 18:00N 54°31' E 011°23'4 7.6
2018-Apr-12 17:30N 54°33' E 011°17'4 7.1
2018-Apr-12 17:00N 54°33' E 011°11'4 7.2
2018-Apr-12 16:30N 54°34' E 011°05'4 7.4
2018-Apr-12 16:00N 54°34' E 010°59'4 8.0
2018-Apr-12 15:30N 54°34' E 010°52'4 8.2
2018-Apr-12 15:00N 54°33' E 010°45'4 8.5
2018-Apr-12 14:31N 54°33' E 010°37'4 8.1
2018-Apr-12 14:00N 54°32' E 010°30'5 8.4
2018-Apr-12 13:24N 54°30' E 010°22'19 1.8
2018-Apr-12 02:41N 54°21' E 009°53'1 4.4
2018-Apr-12 02:23N 54°22' E 009°51'3 7.0
2018-Apr-12 02:00N 54°21' E 009°47'4 7.9
2018-Apr-12 01:30N 54°18' E 009°43'4 7.6
2018-Apr-12 01:00N 54°16' E 009°38'4 7.8
2018-Apr-12 00:30N 54°13' E 009°35'4 8.7
2018-Apr-12 00:00N 54°11' E 009°28'4 8.8
2018-Apr-11 23:31N 54°09' E 009°21'4 8.3
2018-Apr-11 23:00N 54°05' E 009°19'4 7.8
2018-Apr-11 22:30N 54°01' E 009°18'4 8.6
2018-Apr-11 22:01N 53°57' E 009°14'3 6.6
2018-Apr-11 21:30N 53°55' E 009°11'2 3.1
2018-Apr-11 21:00N 53°54' E 009°09'1 1.6
2018-Apr-11 20:30N 53°53' E 009°08'3 5.2
2018-Apr-11 20:00N 53°52' E 009°04'612.1
2018-Apr-11 19:30N 53°50' E 008°54'611.8
2018-Apr-11 19:00N 53°52' E 008°44'612.2
2018-Apr-11 18:28N 53°57' E 008°38'1710.5
2018-Apr-11 16:52N 53°59' E 008°09'410.4
2018-Apr-11 16:28N 53°58' E 008°02'3 6.9
2018-Apr-11 16:00N 53°55' E 007°60'5 9.4
2018-Apr-11 15:30N 53°52' E 008°07'5 9.3
2018-Apr-11 15:00N 53°48' E 008°09'510.3
2018-Apr-11 14:30N 53°44' E 008°15'611.5
2018-Apr-11 14:00N 53°41' E 008°22'612.3
2018-Apr-11 13:30N 53°36' E 008°30'610.8
2018-Apr-11 13:00N 53°31' E 008°33'611.6
2018-Apr-11 12:31N 53°26' E 008°30'611.1
2018-Apr-11 12:00N 53°20' E 008°30'0 0.0
2018-Apr-11 11:28N 53°20' E 008°30'0 0.0
2018-Apr-11 10:55N 53°20' E 008°30'0 0.0
2018-Apr-11 10:22N 53°20' E 008°30'0 0.0
2018-Apr-11 09:58N 53°20' E 008°30'0 0.0
2018-Apr-11 09:16N 53°20' E 008°30'0 0.0
2018-Apr-11 08:55N 53°20' E 008°30'0 0.0
2018-Apr-11 08:28N 53°20' E 008°30'0 0.0
2018-Apr-11 07:58N 53°20' E 008°30'0 0.0
2018-Apr-11 07:28N 53°20' E 008°30'0 0.0
2018-Apr-11 06:46N 53°20' E 008°30'0 0.0
2018-Apr-11 06:28N 53°20' E 008°30'0 0.0
2018-Apr-11 05:58N 53°20' E 008°30'0 0.0
2018-Apr-11 05:19N 53°20' E 008°30'0 0.0
2018-Apr-11 04:58N 53°20' E 008°30'0 0.0
2018-Apr-11 04:28N 53°20' E 008°30'0 0.0
2018-Apr-11 02:10N 53°20' E 008°30'0 0.0
2018-Apr-11 01:46N 53°20' E 008°30'0 0.0
2018-Apr-11 01:28N 53°20' E 008°30'0 0.0
2018-Apr-11 00:58N 53°20' E 008°30'0 0.0
2018-Apr-11 00:28N 53°20' E 008°30'0 0.0
2018-Apr-10 23:46N 53°20' E 008°30'0 0.0
2018-Apr-10 23:19N 53°20' E 008°30'0 0.0
2018-Apr-10 22:52N 53°20' E 008°30'0 0.0
2018-Apr-10 22:25N 53°20' E 008°30'0 0.0
2018-Apr-10 21:58N 53°20' E 008°30'0 0.0
2018-Apr-10 21:28N 53°20' E 008°30'0 0.0
2018-Apr-10 20:58N 53°20' E 008°30'0 0.0
2018-Apr-10 20:28N 53°20' E 008°30'0 0.0
2018-Apr-10 19:58N 53°20' E 008°30'0 0.0
2018-Apr-10 18:19N 53°20' E 008°30'0 0.0
2018-Apr-10 17:52N 53°20' E 008°30'0 0.0
2018-Apr-10 17:28N 53°20' E 008°30'0 0.0
2018-Apr-10 16:58N 53°20' E 008°30'0 0.0
2018-Apr-10 16:28N 53°20' E 008°30'0 0.0
2018-Apr-10 16:00N 53°20' E 008°30'3 6.3
2018-Apr-10 15:30N 53°24' E 008°30'611.8
2018-Apr-10 15:01N 53°29' E 008°30'5 9.4
2018-Apr-10 14:31N 53°34' E 008°33'510.2
2018-Apr-10 14:00N 53°38' E 008°27'5 9.9
2018-Apr-10 13:30N 53°41' E 008°21'510.0
2018-Apr-10 13:00N 53°44' E 008°14'510.1
2018-Apr-10 12:30N 53°48' E 008°08'5 9.9
2018-Apr-10 12:00N 53°51' E 008°02'92 9.3
2018-Apr-10 02:06N 53°34' E 005°30'2 9.5
2018-Apr-10 01:54N 53°33' E 005°27'4 9.7
2018-Apr-10 01:30N 53°32' E 005°20'5 9.5
2018-Apr-10 01:00N 53°30' E 005°13'5 9.5
2018-Apr-10 00:30N 53°29' E 005°05'5 9.6
2018-Apr-10 00:00N 53°27' E 004°58'5 9.7
2018-Apr-09 23:30N 53°25' E 004°50'5 9.9
2018-Apr-09 23:00N 53°23' E 004°43'1110.6
2018-Apr-09 21:57N 53°13' E 004°35'510.5
2018-Apr-09 21:30N 53°08' E 004°32'510.2
2018-Apr-09 20:59N 53°03' E 004°29'510.4
2018-Apr-09 20:30N 52°58' E 004°28'510.5
2018-Apr-09 20:00N 52°53' E 004°28'510.6
2018-Apr-09 19:30N 52°48' E 004°29'510.3
2018-Apr-09 19:00N 52°43' E 004°30'5 9.9
2018-Apr-09 18:30N 52°38' E 004°29'5 9.8
2018-Apr-09 18:00N 52°33' E 004°29'5 9.1
2018-Apr-09 17:31N 52°28' E 004°30'3 6.8
2018-Apr-09 17:00N 52°28' E 004°36'1 2.1
2018-Apr-09 16:30N 52°28' E 004°37'4 7.2
2018-Apr-09 16:01N 52°26' E 004°42'4 8.7
2018-Apr-09 15:30N 52°25' E 004°49'1 1.4
2018-Apr-09 14:58N 52°24' E 004°49'0 0.0
2018-Apr-09 14:28N 52°24' E 004°49'0 0.0
2018-Apr-09 13:55N 52°24' E 004°49'0 0.0
2018-Apr-09 13:25N 52°24' E 004°49'0 0.0
2018-Apr-09 13:00N 52°24' E 004°49'0 0.0
2018-Apr-09 12:30N 52°24' E 004°49'0 0.0
2018-Apr-09 12:00N 52°24' E 004°49'0 0.0
2018-Apr-09 11:30N 52°24' E 004°49'0 0.0
2018-Apr-09 11:00N 52°24' E 004°49'0 0.0
2018-Apr-09 10:30N 52°24' E 004°49'0 0.0
2018-Apr-09 10:00N 52°24' E 004°49'0 0.0
2018-Apr-09 09:30N 52°24' E 004°49'0 0.0
2018-Apr-09 09:00N 52°24' E 004°49'0 0.0
2018-Apr-09 08:30N 52°24' E 004°49'0 0.0
2018-Apr-09 08:00N 52°24' E 004°49'0 0.0
2018-Apr-09 07:30N 52°24' E 004°49'0 0.0
2018-Apr-09 07:00N 52°24' E 004°49'0 0.0
2018-Apr-09 06:30N 52°24' E 004°49'0 0.0
2018-Apr-09 06:00N 52°24' E 004°49'0 0.0
2018-Apr-09 05:30N 52°24' E 004°49'0 0.0
2018-Apr-09 05:00N 52°24' E 004°49'0 0.0
2018-Apr-09 04:30N 52°24' E 004°49'0 0.0
2018-Apr-09 04:00N 52°24' E 004°49'0 0.0
2018-Apr-09 03:30N 52°24' E 004°49'0 0.0
2018-Apr-09 03:00N 52°24' E 004°49'0 0.0
2018-Apr-09 02:30N 52°24' E 004°49'0 0.0
2018-Apr-09 02:00N 52°24' E 004°49'0 0.0
2018-Apr-09 01:30N 52°24' E 004°49'0 0.0
2018-Apr-09 01:00N 52°24' E 004°49'0 0.0
2018-Apr-09 00:30N 52°24' E 004°49'0 0.0
2018-Apr-09 00:00N 52°24' E 004°49'0 0.0
2018-Apr-08 23:30N 52°24' E 004°49'0 0.0
2018-Apr-08 23:00N 52°24' E 004°49'0 0.0
2018-Apr-08 22:30N 52°24' E 004°49'0 0.0
2018-Apr-08 22:00N 52°24' E 004°49'  

Dump ship's entire track history